Time;durP1;ratioP1;P1;durP2;ratioP2;P2;SDS_P1;SDS_P2;PMS_P1;PMS_P2;Temp;Humidity;BMP_temperature;BMP_pressure;BME280_temperature;BME280_humidity;BME280_pressure;Samples;Min_cycle;Max_cycle;Signal;HPM_P1;HPM_P2
2023/03/27 00:02:28;;;;;;;1.37;0.20;;;11.60;69.50;;;;;;2306667;55;21071;-68
2023/03/27 00:04:54;;;;;;;1.20;0.40;;;11.60;69.80;;;;;;2305352;55;21801;-68
2023/03/27 00:07:22;;;;;;;2.00;0.40;;;11.60;69.80;;;;;;2306537;55;21070;-70
2023/03/27 00:09:52;;;;;;;0.50;0.30;;;11.60;69.70;;;;;;2308298;54;21744;-69
2023/03/27 00:12:18;;;;;;;0.85;0.30;;;11.60;69.60;;;;;;2308895;55;21024;-69
2023/03/27 00:14:47;;;;;;;1.10;0.57;;;11.60;69.80;;;;;;2311819;55;20983;-70
2023/03/27 00:17:13;;;;;;;0.68;0.40;;;11.60;69.90;;;;;;2547496;54;21082;-71
2023/03/27 00:19:39;;;;;;;0.70;0.40;;;11.50;69.80;;;;;;2307775;55;20996;-69
2023/03/27 00:22:08;;;;;;;1.52;0.57;;;11.50;70.00;;;;;;2545253;54;21067;-69
2023/03/27 00:24:35;;;;;;;1.45;0.60;;;11.50;69.90;;;;;;2544989;54;21128;-70
2023/03/27 00:27:02;;;;;;;1.45;0.62;;;11.50;69.90;;;;;;2309846;55;21035;-69
2023/03/27 00:29:28;;;;;;;1.48;0.65;;;11.50;69.80;;;;;;2546088;54;21039;-68
2023/03/27 00:31:56;;;;;;;1.90;0.90;;;11.40;69.80;;;;;;2308057;55;21000;-70
2023/03/27 00:34:22;;;;;;;1.50;0.70;;;11.40;69.80;;;;;;2306784;55;21311;-69
2023/03/27 00:36:50;;;;;;;1.83;0.80;;;11.40;69.80;;;;;;2297769;55;21002;-69
2023/03/27 00:39:18;;;;;;;3.47;1.17;;;11.40;69.80;;;;;;2544886;53;20951;-69
2023/03/27 00:41:47;;;;;;;2.35;1.08;;;11.40;69.80;;;;;;2309029;55;21023;-71
2023/03/27 00:44:34;;;;;;;1.95;0.98;;;11.40;69.80;;;;;;2548255;54;21333;-68
2023/03/27 00:47:02;;;;;;;1.95;0.90;;;11.40;69.40;;;;;;2309003;55;20970;-69
2023/03/27 00:49:33;;;;;;;1.98;0.95;;;11.30;69.70;;;;;;2306364;55;20983;-70
2023/03/27 00:52:02;;;;;;;2.37;1.10;;;11.30;69.80;;;;;;2307376;55;20955;-70
2023/03/27 00:54:30;;;;;;;2.10;1.00;;;11.30;69.90;;;;;;2308739;54;20960;-69
2023/03/27 00:57:07;;;;;;;2.95;1.20;;;11.20;69.80;;;;;;2307721;55;22091;-71
2023/03/27 00:59:37;;;;;;;2.58;1.20;;;11.20;69.70;;;;;;2314376;54;22134;-68
2023/03/27 01:02:03;;;;;;;3.53;1.40;;;11.20;69.90;;;;;;2530685;53;20963;-70
2023/03/27 01:04:32;;;;;;;3.47;1.10;;;11.20;70.00;;;;;;2311244;55;20973;-68
2023/03/27 01:06:59;;;;;;;3.33;1.25;;;11.20;70.00;;;;;;2289105;55;20985;-68
2023/03/27 01:09:26;;;;;;;2.28;1.15;;;11.20;70.00;;;;;;2546892;54;21461;-69
2023/03/27 01:19:40;;;;;;;2.50;1.08;;;11.20;70.10;;;;;;2305970;55;21092;-68
2023/03/27 01:22:42;;;;;;;2.87;1.12;;;11.20;69.30;;;;;;2306021;55;21063;-69
2023/03/27 01:25:50;;;;;;;2.72;1.23;;;11.10;69.70;;;;;;2310008;55;21019;-69
2023/03/27 01:36:30;;;;;;;2.60;1.30;;;11.10;69.80;;;;;;2306398;55;20979;-70
2023/03/27 01:40:41;;;;;;;2.45;1.17;;;11.10;69.40;;;;;;2310251;55;21056;-68
2023/03/27 01:43:24;;;;;;;3.08;1.50;;;11.10;69.90;;;;;;2306920;55;21016;-68
2023/03/27 01:46:07;;;;;;;4.00;1.65;;;11.00;70.20;;;;;;2306808;55;21003;-69
2023/03/27 01:49:18;;;;;;;;;;;11.00;70.00;;;;;;2549057;54;21110;-69
2023/03/27 01:52:37;;;;;;;3.40;2.00;;;11.00;69.80;;;;;;2312516;55;20120;-68
2023/03/27 01:55:08;;;;;;;4.15;1.92;;;11.00;70.20;;;;;;2312897;55;20987;-69
2023/03/27 01:57:40;;;;;;;4.32;2.17;;;10.90;70.10;;;;;;2544284;54;21063;-69
2023/03/27 02:00:12;;;;;;;4.78;2.55;;;11.00;70.30;;;;;;2547834;54;21095;-69
2023/03/27 02:02:39;;;;;;;4.80;2.67;;;10.90;70.30;;;;;;2546793;54;20968;-68
2023/03/27 02:05:29;;;;;;;4.78;2.60;;;10.90;70.30;;;;;;2312443;55;21032;-68
2023/03/27 02:08:08;;;;;;;4.32;2.70;;;10.90;70.20;;;;;;2547468;53;21354;-68
2023/03/27 02:10:41;;;;;;;4.80;2.72;;;10.90;70.20;;;;;;2307994;55;21657;-70
2023/03/27 02:13:17;;;;;;;;;;;10.90;70.20;;;;;;2551714;54;21059;-70
2023/03/27 02:15:45;;;;;;;5.37;2.53;;;10.90;69.50;;;;;;2309465;55;20277;-70
2023/03/27 02:18:13;;;;;;;4.70;2.67;;;10.80;70.10;;;;;;2309328;55;21787;-70
2023/03/27 02:20:40;;;;;;;5.57;2.92;;;10.90;70.20;;;;;;2308108;55;20952;-68
2023/03/27 02:23:08;;;;;;;5.75;2.92;;;10.80;70.30;;;;;;2310641;55;20948;-68
2023/03/27 02:25:37;;;;;;;6.00;3.40;;;10.80;70.20;;;;;;2550070;54;21039;-71
2023/03/27 02:34:58;;;;;;;6.65;3.65;;;10.80;70.30;;;;;;2548649;54;21020;-69
2023/03/27 02:38:01;;;;;;;4.43;2.22;;;10.80;70.90;;;;;;2314715;54;21007;-66
2023/03/27 02:43:45;;;;;;;4.37;2.65;;;10.70;69.40;;;;;;2313594;55;21102;-70
2023/03/27 02:53:47;;;;;;;3.87;2.20;;;10.40;68.70;;;;;;2311225;58;21155;-67
2023/03/27 02:56:15;;;;;;;4.65;2.90;;;10.40;68.80;;;;;;2311239;55;21011;-68
2023/03/27 02:58:50;;;;;;;4.07;2.17;;;10.30;69.00;;;;;;2550205;54;21512;-68
2023/03/27 03:01:17;;;;;;;4.90;2.15;;;10.20;68.80;;;;;;2550481;54;21008;-68
2023/03/27 03:03:52;;;;;;;3.50;2.15;;;10.20;69.00;;;;;;2549131;53;21535;-67
2023/03/27 03:06:28;;;;;;;6.00;2.80;;;10.10;69.00;;;;;;2551071;54;21007;-68
2023/03/27 03:09:00;;;;;;;4.53;2.22;;;10.10;69.20;;;;;;2548726;53;21178;-68
2023/03/27 03:11:27;;;;;;;4.05;2.22;;;10.00;69.20;;;;;;2311239;55;20972;-68
2023/03/27 03:13:55;;;;;;;4.32;2.42;;;10.00;69.40;;;;;;2547336;54;20977;-68
2023/03/27 03:16:22;;;;;;;7.95;2.92;;;10.00;69.50;;;;;;2309745;55;21055;-68
2023/03/27 03:18:50;;;;;;;4.45;2.50;;;10.00;69.60;;;;;;2548837;54;21007;-68
2023/03/27 03:21:28;;;;;;;4.53;2.70;;;9.90;70.60;;;;;;2309413;55;21021;-68
2023/03/27 03:23:56;;;;;;;6.12;2.37;;;9.90;70.50;;;;;;2312611;55;21578;-66
2023/03/27 03:26:22;;;;;;;4.35;2.30;;;9.90;70.80;;;;;;2313731;55;21048;-68
2023/03/27 03:28:50;;;;;;;6.18;2.78;;;9.90;71.50;;;;;;2308068;54;21023;-67
2023/03/27 03:31:17;;;;;;;4.07;2.45;;;9.90;70.80;;;;;;2549251;54;20987;-68
2023/03/27 03:33:47;;;;;;;7.65;2.80;;;9.90;70.90;;;;;;2547223;53;21001;-67
2023/03/27 03:36:15;;;;;;;6.20;3.03;;;9.80;70.80;;;;;;2309029;55;21063;-68
2023/03/27 03:38:44;;;;;;;8.77;4.05;;;9.80;70.80;;;;;;2546321;53;21005;-67
2023/03/27 03:41:11;;;;;;;8.07;4.90;;;9.80;70.70;;;;;;2315334;54;21049;-68
2023/03/27 03:43:37;;;;;;;7.62;4.50;;;9.80;70.70;;;;;;2303597;55;21035;-68
2023/03/27 03:46:05;;;;;;;11.63;5.32;;;9.80;70.70;;;;;;2547068;54;21043;-68
2023/03/27 03:48:32;;;;;;;11.38;6.22;;;9.80;70.70;;;;;;2547601;54;21355;-69
2023/03/27 03:51:00;;;;;;;10.60;5.70;;;9.70;70.50;;;;;;2547799;54;21194;-69
2023/03/27 03:53:26;;;;;;;8.75;5.60;;;9.70;71.10;;;;;;2548333;53;21101;-68
2023/03/27 03:55:54;;;;;;;10.18;6.25;;;9.70;70.30;;;;;;2307922;55;21011;-68
2023/03/27 03:58:21;;;;;;;8.75;5.22;;;9.70;70.40;;;;;;2546762;53;21004;-67
2023/03/27 04:00:48;;;;;;;10.73;4.95;;;9.60;70.20;;;;;;2308784;55;21007;-69
2023/03/27 04:03:14;;;;;;;10.85;5.32;;;9.60;70.10;;;;;;2545295;54;21050;-68
2023/03/27 04:05:41;;;;;;;9.68;4.97;;;9.60;70.00;;;;;;2308903;54;22036;-69
2023/03/27 04:08:10;;;;;;;11.52;4.60;;;9.50;69.80;;;;;;2549465;54;21266;-68
2023/03/27 04:10:41;;;;;;;7.12;4.30;;;9.50;69.80;;;;;;2311986;55;22121;-68
2023/03/27 04:20:05;;;;;;;8.13;4.00;;;9.40;69.30;;;;;;2546145;54;20996;-68
2023/03/27 04:22:37;;;;;;;7.05;4.00;;;9.30;69.70;;;;;;2307959;55;20956;-68
2023/03/27 04:25:08;;;;;;;6.47;3.62;;;9.30;69.70;;;;;;2308745;54;21058;-69
2023/03/27 04:27:43;;;;;;;8.95;5.07;;;9.30;69.70;;;;;;2309354;55;21038;-68
2023/03/27 04:30:12;;;;;;;8.38;4.10;;;9.20;69.70;;;;;;2545713;54;21055;-67
2023/03/27 04:32:39;;;;;;;8.20;4.62;;;9.20;69.60;;;;;;2310829;55;20960;-68
2023/03/27 04:35:12;;;;;;;7.82;4.07;;;9.20;69.60;;;;;;2308608;55;21016;-68
2023/03/27 04:37:40;;;;;;;7.70;3.58;;;9.10;69.50;;;;;;2548131;53;20993;-68
2023/03/27 04:40:09;;;;;;;6.37;3.58;;;9.10;69.60;;;;;;2547835;53;21012;-69
2023/03/27 04:42:43;;;;;;;7.55;4.15;;;9.00;69.50;;;;;;2309174;55;20952;-68
2023/03/27 04:45:13;;;;;;;8.38;3.70;;;9.00;69.40;;;;;;2312704;55;20992;-68
2023/03/27 04:47:39;;;;;;;5.95;3.28;;;9.00;69.40;;;;;;2547089;54;20988;-67
2023/03/27 04:50:07;;;;;;;6.70;3.30;;;9.00;69.40;;;;;;2307948;55;20961;-68
2023/03/27 04:52:35;;;;;;;6.60;3.60;;;8.90;69.40;;;;;;2548358;54;20995;-68
2023/03/27 04:55:03;;;;;;;6.95;4.05;;;8.90;70.30;;;;;;2547817;54;21034;-68
2023/03/27 04:57:32;;;;;;;7.57;3.65;;;8.90;69.40;;;;;;2308712;55;20981;-68
2023/03/27 04:59:58;;;;;;;6.05;3.58;;;8.90;69.40;;;;;;2548159;54;21006;-68
2023/03/27 05:02:29;;;;;;;8.73;3.65;;;8.80;69.30;;;;;;2548326;54;20956;-68
2023/03/27 05:05:00;;;;;;;7.97;3.60;;;8.80;69.40;;;;;;2308379;55;21055;-68
2023/03/27 05:07:29;;;;;;;5.78;3.40;;;8.80;69.40;;;;;;2549706;54;20967;-68
2023/03/27 05:09:56;;;;;;;6.68;3.70;;;8.80;69.30;;;;;;2548678;54;21075;-68
2023/03/27 05:12:23;;;;;;;6.90;3.53;;;8.70;69.30;;;;;;2308755;55;21179;-69
2023/03/27 05:14:50;;;;;;;5.85;3.72;;;8.70;69.40;;;;;;2548624;54;21087;-68
2023/03/27 05:17:19;;;;;;;8.07;3.47;;;8.70;69.40;;;;;;2310465;55;21091;-69
2023/03/27 05:19:46;;;;;;;6.20;3.42;;;8.70;69.40;;;;;;2548114;54;21039;-68
2023/03/27 05:22:13;;;;;;;6.32;2.97;;;8.70;69.50;;;;;;2547420;54;21561;-68
2023/03/27 05:24:41;;;;;;;8.35;3.70;;;8.60;69.40;;;;;;2308164;55;21022;-68
2023/03/27 05:27:09;;;;;;;5.70;4.05;;;8.60;69.50;;;;;;2308941;55;21035;-68
2023/03/27 05:29:36;;;;;;;7.47;3.35;;;8.60;69.60;;;;;;2520796;54;21046;-68
2023/03/27 05:32:03;;;;;;;7.80;4.00;;;8.60;69.60;;;;;;2548943;54;20976;-68
2023/03/27 05:34:33;;;;;;;6.25;3.40;;;8.60;69.60;;;;;;2313504;55;20976;-68
2023/03/27 05:37:04;;;;;;;6.03;3.35;;;8.50;69.40;;;;;;2548575;54;20920;-68
2023/03/27 05:39:32;;;;;;;8.20;3.53;;;8.50;69.40;;;;;;2547643;54;21046;-68
2023/03/27 05:41:58;;;;;;;6.45;3.40;;;8.50;69.50;;;;;;2547723;54;21011;-68
2023/03/27 05:44:26;;;;;;;5.72;3.20;;;8.50;69.50;;;;;;2308033;55;21047;-68
2023/03/27 05:46:56;;;;;;;7.10;3.58;;;8.50;69.40;;;;;;2308105;55;21051;-68
2023/03/27 05:49:23;;;;;;;7.15;3.30;;;8.50;69.40;;;;;;2312857;55;21045;-72
2023/03/27 05:51:51;;;;;;;7.70;2.67;;;8.50;69.50;;;;;;2306218;55;20980;-69
2023/03/27 05:54:17;;;;;;;7.18;3.30;;;8.50;69.40;;;;;;2547865;54;21083;-70
2023/03/27 05:56:46;;;;;;;7.50;3.62;;;8.40;69.40;;;;;;2548230;54;20976;-67
2023/03/27 05:59:16;;;;;;;5.70;2.70;;;8.40;69.40;;;;;;2546782;54;21011;-68
2023/03/27 06:01:44;;;;;;;4.68;2.62;;;8.40;69.40;;;;;;2307799;55;21011;-68
2023/03/27 06:04:11;;;;;;;6.43;3.10;;;8.40;69.40;;;;;;2307626;55;21047;-69
2023/03/27 06:06:38;;;;;;;4.97;2.53;;;8.40;69.50;;;;;;2519642;54;20991;-68
2023/03/27 06:09:11;;;;;;;4.95;2.58;;;8.40;69.50;;;;;;2549125;54;20932;-69
2023/03/27 06:11:39;;;;;;;7.93;3.08;;;8.40;69.40;;;;;;2546804;54;21011;-69
2023/03/27 06:14:05;;;;;;;5.25;2.72;;;8.40;69.50;;;;;;2310910;55;21849;-67
2023/03/27 06:16:32;;;;;;;7.18;2.40;;;8.40;69.60;;;;;;2308760;55;20897;-69
2023/03/27 06:19:00;;;;;;;5.07;2.72;;;8.40;69.50;;;;;;2547942;54;21063;-68
2023/03/27 06:21:26;;;;;;;4.40;2.37;;;8.40;69.60;;;;;;2311013;55;20995;-68
2023/03/27 06:24:00;;;;;;;5.87;2.40;;;8.40;69.60;;;;;;2308404;55;21046;-68
2023/03/27 06:26:27;;;;;;;5.87;1.98;;;8.40;69.40;;;;;;2308139;55;20980;-68
2023/03/27 06:28:55;;;;;;;7.20;2.40;;;8.30;69.40;;;;;;2310524;54;21048;-68
2023/03/27 06:31:21;;;;;;;6.30;2.12;;;8.30;69.20;;;;;;2308363;55;21075;-69
2023/03/27 06:33:51;;;;;;;6.35;1.70;;;8.30;69.20;;;;;;2308388;55;20967;-69
2023/03/27 06:36:19;;;;;;;6.87;2.05;;;8.30;68.90;;;;;;2308726;54;20979;-67
2023/03/27 06:38:46;;;;;;;8.50;1.80;;;8.30;69.00;;;;;;2310612;55;20971;-67
2023/03/27 06:41:14;;;;;;;4.65;1.80;;;8.20;68.80;;;;;;2544638;54;20995;-69
2023/03/27 06:43:40;;;;;;;7.78;1.55;;;8.20;68.60;;;;;;2308099;55;21059;-68
2023/03/27 06:46:08;;;;;;;6.37;1.58;;;8.20;68.50;;;;;;2547419;54;21023;-69
2023/03/27 06:48:35;;;;;;;5.95;1.30;;;8.20;68.30;;;;;;2548286;54;21614;-67
2023/03/27 06:51:02;;;;;;;4.03;1.40;;;8.20;68.40;;;;;;2308282;55;21039;-67
2023/03/27 06:53:29;;;;;;;5.47;1.37;;;8.10;68.30;;;;;;2305860;55;21083;-68
2023/03/27 06:55:58;;;;;;;5.50;1.48;;;8.10;68.40;;;;;;2547913;54;21070;-70
2023/03/27 06:58:26;;;;;;;5.00;1.50;;;8.10;68.40;;;;;;2311417;54;21498;-68
2023/03/27 07:04:53;;;;;;;4.37;1.40;;;8.00;67.40;;;;;;2307059;58;21030;-68
2023/03/27 07:07:23;;;;;;;3.95;1.20;;;8.00;67.50;;;;;;2309317;55;21201;-69
2023/03/27 07:09:51;;;;;;;3.97;1.25;;;7.90;68.20;;;;;;2546347;54;20948;-68
2023/03/27 07:12:18;;;;;;;3.72;1.10;;;7.90;67.90;;;;;;2311053;55;21027;-68
2023/03/27 07:14:46;;;;;;;7.32;1.65;;;7.90;68.00;;;;;;2547876;54;21274;-68
2023/03/27 07:17:12;;;;;;;5.93;1.50;;;7.90;68.30;;;;;;2309489;55;21967;-68
2023/03/27 07:19:40;;;;;;;5.03;1.48;;;7.80;68.40;;;;;;2308590;55;21051;-68
2023/03/27 07:25:38;;;;;;;4.80;1.37;;;7.90;68.00;;;;;;2307587;55;21139;-69
2023/03/27 07:28:08;;;;;;;7.65;1.67;;;7.90;68.80;;;;;;2307501;55;20983;-68
2023/03/27 07:30:35;;;;;;;3.17;1.08;;;7.90;69.40;;;;;;2546646;54;21095;-67
2023/03/27 07:33:03;;;;;;;3.17;1.17;;;7.90;68.60;;;;;;2308280;55;20971;-68
2023/03/27 07:35:30;;;;;;;5.15;1.30;;;7.90;68.60;;;;;;2308013;55;22179;-68
2023/03/27 07:37:57;;;;;;;4.07;1.10;;;7.90;68.60;;;;;;2309554;55;20959;-68
2023/03/27 07:40:25;;;;;;;6.15;1.27;;;7.90;68.70;;;;;;2308585;55;21036;-69
2023/03/27 07:43:05;;;;;;;4.65;1.10;;;7.90;68.40;;;;;;2308665;55;22371;-68
2023/03/27 07:45:33;;;;;;;4.62;1.20;;;7.90;68.40;;;;;;2307124;55;21007;-68
2023/03/27 07:48:15;;;;;;;3.80;1.05;;;7.90;68.60;;;;;;2310884;54;21008;-68
2023/03/27 07:50:43;;;;;;;3.65;1.05;;;8.00;68.60;;;;;;2307965;55;20988;-68
2023/03/27 07:53:10;;;;;;;5.10;1.23;;;8.00;69.10;;;;;;2307965;55;21000;-69
2023/03/27 07:55:40;;;;;;;6.07;1.30;;;8.10;69.60;;;;;;2547752;54;20999;-69
2023/03/27 07:58:08;;;;;;;5.18;1.40;;;8.10;69.70;;;;;;2308033;55;22148;-69
2023/03/27 08:00:35;;;;;;;4.15;1.17;;;8.10;69.80;;;;;;2548210;54;21059;-68
2023/03/27 08:03:10;;;;;;;4.12;1.27;;;8.20;69.70;;;;;;2546963;54;21281;-68
2023/03/27 08:05:38;;;;;;;4.50;1.30;;;8.20;69.30;;;;;;2308040;55;21031;-69
2023/03/27 08:08:04;;;;;;;5.30;1.50;;;8.30;69.40;;;;;;2547340;54;20956;-68
2023/03/27 08:10:33;;;;;;;6.68;1.45;;;8.30;69.20;;;;;;2307148;55;21027;-69
2023/03/27 08:12:59;;;;;;;5.28;1.23;;;8.30;69.00;;;;;;2310520;55;20964;-70
2023/03/27 08:15:27;;;;;;;5.97;1.48;;;8.30;68.80;;;;;;2546384;53;20999;-69
2023/03/27 08:17:55;;;;;;;3.30;1.25;;;8.30;68.40;;;;;;2307196;55;21070;-69
2023/03/27 08:20:29;;;;;;;3.28;1.42;;;8.30;68.60;;;;;;2312050;55;21031;-69
2023/03/27 08:22:56;;;;;;;;;;;8.30;68.60;;;;;;2551230;54;21032;-69
2023/03/27 08:25:23;;;;;;;2.62;1.10;;;8.30;67.40;;;;;;2546813;53;20116;-70
2023/03/27 08:27:49;;;;;;;8.05;1.25;;;8.20;68.40;;;;;;2547166;54;22066;-68
2023/03/27 08:30:28;;;;;;;4.68;1.10;;;8.30;68.60;;;;;;2308915;55;21065;-68
2023/03/27 08:32:55;;;;;;;3.60;0.88;;;8.30;68.40;;;;;;2546592;54;20972;-69
2023/03/27 08:35:23;;;;;;;3.03;1.08;;;8.30;68.40;;;;;;2308569;55;22252;-68
2023/03/27 08:37:52;;;;;;;5.05;1.05;;;8.30;68.70;;;;;;2546622;54;20987;-68
2023/03/27 08:40:22;;;;;;;5.43;1.10;;;8.40;69.60;;;;;;2546777;54;20999;-69
2023/03/27 08:42:54;;;;;;;5.45;1.10;;;8.40;69.10;;;;;;2549889;54;21067;-71
2023/03/27 08:45:33;;;;;;;3.78;1.05;;;8.40;69.40;;;;;;2546462;54;21520;-71
2023/03/27 08:48:07;;;;;;;5.57;1.40;;;8.50;69.30;;;;;;2309924;55;20999;-69
2023/03/27 08:50:44;;;;;;;3.00;1.02;;;8.50;69.80;;;;;;2546027;53;20997;-69
2023/03/27 08:53:19;;;;;;;4.75;1.23;;;8.60;69.60;;;;;;2307679;54;21271;-68
2023/03/27 08:55:45;;;;;;;5.20;1.20;;;8.70;69.50;;;;;;2307823;55;21647;-68
2023/03/27 08:58:19;;;;;;;4.30;1.30;;;8.70;69.80;;;;;;2305960;55;20976;-69
2023/03/27 09:00:56;;;;;;;5.70;1.33;;;8.80;69.40;;;;;;2546780;54;20971;-69
2023/03/27 09:06:59;;;;;;;3.62;1.10;;;9.00;69.30;;;;;;2310968;55;20986;-70
2023/03/27 09:11:21;;;;;;;3.70;1.00;;;9.00;69.90;;;;;;2548439;54;20983;-69
2023/03/27 09:13:49;;;;;;;2.97;1.10;;;9.10;69.40;;;;;;2546808;54;21039;-70
2023/03/27 09:17:24;;;;;;;6.78;1.15;;;9.20;70.60;;;;;;2547677;53;21128;-70
2023/03/27 09:20:06;;;;;;;4.15;1.30;;;9.40;69.10;;;;;;2307571;55;20994;-70
2023/03/27 09:22:44;;;;;;;5.45;0.95;;;9.50;70.60;;;;;;2308209;55;20991;-70
2023/03/27 09:25:35;;;;;;;2.03;0.80;;;9.60;70.50;;;;;;2307295;55;21074;-70
2023/03/27 09:28:02;;;;;;;3.90;1.00;;;9.70;69.80;;;;;;2305970;55;21070;-70
2023/03/27 09:30:31;;;;;;;2.92;0.85;;;9.80;70.90;;;;;;2547651;54;21007;-69
2023/03/27 09:33:02;;;;;;;3.35;1.02;;;9.90;70.60;;;;;;2547170;54;21883;-69
2023/03/27 09:35:30;;;;;;;;;;;10.00;69.40;;;;;;2552480;54;20995;-70
2023/03/27 09:38:02;;;;;;;3.95;1.02;;;10.00;68.00;;;;;;2306895;55;20558;-70
2023/03/27 09:40:49;;;;;;;8.07;1.55;;;10.10;69.40;;;;;;2546373;54;20987;-70
2023/03/27 09:43:20;;;;;;;4.65;1.00;;;10.20;68.80;;;;;;2546745;54;21007;-70
2023/03/27 09:45:48;;;;;;;5.70;1.00;;;10.30;69.40;;;;;;2307332;55;20984;-69
2023/03/27 09:48:45;;;;;;;3.42;1.15;;;10.40;69.60;;;;;;2307360;55;21070;-71
2023/03/27 09:51:34;;;;;;;3.72;1.20;;;10.50;69.10;;;;;;2547279;54;21008;-71
2023/03/27 09:54:07;;;;;;;2.65;1.00;;;10.60;69.00;;;;;;2546947;54;22200;-69
2023/03/27 09:56:38;;;;;;;3.53;1.05;;;10.70;70.30;;;;;;2548697;54;21044;-70
2023/03/27 09:59:36;;;;;;;3.65;1.30;;;10.80;69.60;;;;;;2307438;55;22262;-70
2023/03/27 10:06:06;;;;;;;4.55;1.12;;;11.00;67.60;;;;;;2307548;58;21083;-70
2023/03/27 10:08:42;;;;;;;3.35;1.00;;;11.10;67.70;;;;;;2306335;55;20975;-69
2023/03/27 10:11:24;;;;;;;4.35;1.55;;;11.10;69.20;;;;;;2547020;53;20909;-86
2023/03/27 10:13:51;;;;;;;2.40;0.90;;;11.20;69.90;;;;;;2546926;53;20953;-85
2023/03/27 10:16:18;;;;;;;4.40;1.30;;;11.30;70.30;;;;;;2547411;53;20901;-83
2023/03/27 10:18:46;;;;;;;4.75;1.30;;;11.40;70.50;;;;;;2546940;53;20920;-90
2023/03/27 10:21:30;;;;;;;5.72;1.30;;;11.50;70.70;;;;;;2310772;53;21378;-83
2023/03/27 10:24:04;;;;;;;4.95;1.25;;;11.70;70.00;;;;;;2547196;53;20944;-83
2023/03/27 10:26:31;;;;;;;2.53;1.00;;;11.80;70.20;;;;;;2549643;53;20904;-83
2023/03/27 10:29:03;;;;;;;5.00;1.30;;;11.80;69.70;;;;;;2549312;53;21497;-83
2023/03/27 10:31:31;;;;;;;;;;;11.90;69.20;;;;;;2554411;53;20964;-81
2023/03/27 10:34:00;;;;;;;3.12;1.00;;;12.00;67.20;;;;;;2549425;53;20082;-82
2023/03/27 10:36:27;;;;;;;3.40;0.82;;;12.00;68.30;;;;;;2311712;53;21383;-83
2023/03/27 10:38:56;;;;;;;5.25;0.95;;;12.00;67.50;;;;;;2547975;53;21037;-82
2023/03/27 10:41:23;;;;;;;3.47;0.90;;;12.00;67.30;;;;;;2549692;53;20929;-83
2023/03/27 10:43:49;;;;;;;7.37;1.10;;;11.90;67.20;;;;;;2548088;53;20961;-83
2023/03/27 10:46:25;;;;;;;3.92;1.10;;;11.90;66.90;;;;;;2312229;53;20944;-83
2023/03/27 10:50:01;;;;;;;4.35;1.00;;;11.90;66.30;;;;;;2312247;53;20964;-83
2023/03/27 10:52:59;;;;;;;3.95;0.93;;;11.90;64.00;;;;;;2312279;53;20969;-83
2023/03/27 10:56:34;;;;;;;3.20;0.68;;;11.80;64.70;;;;;;2311962;53;20948;-84
2023/03/27 10:59:15;;;;;;;3.40;1.00;;;11.80;65.60;;;;;;2547995;53;20929;-83
2023/03/27 11:01:49;;;;;;;2.72;0.95;;;11.70;65.00;;;;;;2548789;53;20973;-83
2023/03/27 11:04:23;;;;;;;2.45;0.70;;;11.60;66.00;;;;;;2549531;53;21037;-83
2023/03/27 11:06:51;;;;;;;3.47;1.17;;;11.60;66.80;;;;;;2548085;53;21383;-84
2023/03/27 11:09:36;;;;;;;7.05;1.20;;;11.70;67.70;;;;;;2312779;53;20972;-83
2023/03/27 11:12:06;;;;;;;2.47;0.80;;;11.70;66.80;;;;;;2548764;53;21072;-82
2023/03/27 11:14:47;;;;;;;4.35;1.17;;;11.80;68.00;;;;;;2549966;53;20972;-82
2023/03/27 11:17:15;;;;;;;4.35;0.88;;;11.80;66.70;;;;;;2311956;53;21491;-84
2023/03/27 11:19:51;;;;;;;3.40;1.12;;;11.90;67.40;;;;;;2310568;53;21000;-82
2023/03/27 11:22:22;;;;;;;3.40;1.00;;;11.90;67.60;;;;;;2311076;53;20944;-83
2023/03/27 11:24:58;;;;;;;2.55;0.73;;;12.00;68.00;;;;;;2311325;53;22775;-83
2023/03/27 11:27:37;;;;;;;2.25;0.70;;;12.10;67.90;;;;;;2550606;53;20977;-84
2023/03/27 11:31:50;;;;;;;1.62;0.70;;;12.20;66.40;;;;;;2313377;53;21591;-83
2023/03/27 11:34:35;;;;;;;5.85;1.10;;;12.20;64.10;;;;;;2550976;53;21441;-84
2023/03/27 11:37:16;;;;;;;3.50;1.12;;;12.30;67.40;;;;;;2312152;53;20943;-84
2023/03/27 11:39:55;;;;;;;2.78;0.93;;;12.30;66.80;;;;;;2550681;53;20976;-83
2023/03/27 11:42:26;;;;;;;4.97;0.90;;;12.40;67.20;;;;;;2313311;53;20936;-84
2023/03/27 11:44:53;;;;;;;3.85;0.90;;;12.50;67.20;;;;;;2549726;53;21865;-82
2023/03/27 11:47:27;;;;;;;4.00;0.88;;;12.50;67.10;;;;;;2312378;53;20968;-84
2023/03/27 11:51:56;;;;;;;5.07;1.00;;;12.60;66.20;;;;;;2550769;53;21756;-83
2023/03/27 11:54:47;;;;;;;2.90;0.70;;;12.60;64.20;;;;;;2553727;53;21136;-84
2023/03/27 11:57:22;;;;;;;3.85;0.80;;;12.60;64.30;;;;;;2552130;53;20941;-84
2023/03/27 12:01:43;;;;;;;3.97;1.42;;;12.60;65.20;;;;;;2552533;53;20984;-84
2023/03/27 12:04:47;;;;;;;2.17;1.00;;;12.60;63.30;;;;;;2552044;53;20912;-84
2023/03/27 12:07:38;;;;;;;3.55;1.10;;;12.60;64.90;;;;;;2312517;53;21522;-84
2023/03/27 12:10:41;;;;;;;3.72;1.02;;;12.70;65.90;;;;;;2550862;53;20960;-83
2023/03/27 12:23:03;;;;;;;3.45;0.90;;;12.70;64.50;;;;;;2550851;53;21029;-83
2023/03/27 12:28:51;;;;;;;1.83;0.55;;;12.90;64.70;;;;;;2573313;53;21184;-85
2023/03/27 12:38:07;;;;;;;2.72;0.68;;;13.00;65.80;;;;;;2555630;53;20933;-83
2023/03/27 12:40:48;;;;;;;1.90;0.52;;;13.00;65.00;;;;;;2340537;53;20939;-84
2023/03/27 12:43:26;;;;;;;3.53;0.83;;;12.90;64.40;;;;;;2313407;53;20948;-84
2023/03/27 12:49:33;;;;;;;1.98;0.73;;;12.80;64.40;;;;;;2549444;53;20972;-83
2023/03/27 12:52:06;;;;;;;1.42;0.70;;;12.70;64.00;;;;;;2549520;53;20925;-83
2023/03/27 12:54:37;;;;;;;5.03;1.00;;;12.70;65.70;;;;;;2550495;53;21726;-85
2023/03/27 12:57:21;;;;;;;3.42;1.00;;;12.70;66.50;;;;;;2550231;53;20989;-84
2023/03/27 13:00:20;;;;;;;2.87;0.90;;;12.60;65.20;;;;;;2550823;53;20928;-84
2023/03/27 13:03:18;;;;;;;4.80;0.90;;;12.60;65.30;;;;;;2551191;53;20944;-84
2023/03/27 13:06:00;;;;;;;2.30;0.95;;;12.70;65.80;;;;;;2550509;53;20976;-83
2023/03/27 13:09:02;;;;;;;1.83;0.80;;;12.70;66.40;;;;;;2550477;53;21028;-84
2023/03/27 13:18:29;;;;;;;3.42;1.02;;;12.80;66.20;;;;;;2551407;53;20953;-84
2023/03/27 13:21:03;;;;;;;2.58;0.85;;;13.00;66.40;;;;;;2550534;53;21552;-84
2023/03/27 13:25:09;;;;;;;2.15;0.88;;;13.10;67.90;;;;;;2338883;53;21272;-84
2023/03/27 13:28:11;;;;;;;1.90;0.90;;;13.20;65.40;;;;;;2312814;53;20885;-84
2023/03/27 13:30:46;;;;;;;2.90;1.12;;;13.30;66.70;;;;;;2313634;53;21215;-84
2023/03/27 13:36:13;;;;;;;3.35;1.23;;;13.30;67.40;;;;;;2551476;53;21441;-84
2023/03/27 13:41:20;;;;;;;2.40;0.90;;;13.50;65.20;;;;;;2551686;53;20917;-83
2023/03/27 13:43:46;;;;;;;4.50;0.98;;;13.50;67.10;;;;;;2555272;53;20905;-84
2023/03/27 13:46:15;;;;;;;3.47;1.00;;;13.50;66.60;;;;;;2553681;53;20936;-83
2023/03/27 13:49:12;;;;;;;4.00;0.90;;;13.60;66.00;;;;;;2552391;53;20905;-83
2023/03/27 13:54:49;;;;;;;2.53;0.80;;;13.50;64.10;;;;;;2313395;53;20941;-83
2023/03/27 14:00:09;;;;;;;3.17;0.80;;;13.40;63.10;;;;;;2551333;53;20964;-83
2023/03/27 14:07:52;;;;;;;3.58;1.00;;;13.40;63.40;;;;;;2549072;53;20929;-83
2023/03/27 14:11:13;;;;;;;2.78;0.77;;;13.40;64.50;;;;;;2548319;53;21104;-85
2023/03/27 14:14:06;;;;;;;3.22;0.90;;;13.30;64.60;;;;;;2547893;53;20925;-84
2023/03/27 14:17:16;;;;;;;;;;;13.30;65.00;;;;;;2552428;53;21084;-83
2023/03/27 14:20:00;;;;;;;2.15;0.70;;;13.30;64.30;;;;;;2547843;53;20098;-82
2023/03/27 14:23:02;;;;;;;1.48;0.70;;;13.30;66.20;;;;;;2310694;53;21039;-82
2023/03/27 14:25:37;;;;;;;2.12;0.85;;;13.30;66.90;;;;;;2548505;53;20956;-82
2023/03/27 14:28:04;;;;;;;3.60;1.40;;;13.30;66.50;;;;;;2566539;52;21019;-83
2023/03/27 14:30:52;;;;;;;2.22;0.95;;;13.30;66.90;;;;;;2316332;53;20980;-83
2023/03/27 14:33:20;;;;;;;2.87;1.20;;;13.30;65.20;;;;;;2547936;53;21307;-83
2023/03/27 14:35:55;;;;;;;2.25;1.15;;;13.30;67.00;;;;;;2548160;53;20913;-82
2023/03/27 14:38:27;;;;;;;3.08;1.25;;;13.30;66.30;;;;;;2548653;53;20988;-82
2023/03/27 14:40:57;;;;;;;4.43;1.25;;;13.40;66.30;;;;;;2548579;53;22036;-82
2023/03/27 14:43:25;;;;;;;2.67;1.08;;;13.40;66.20;;;;;;2549741;53;20913;-83
2023/03/27 14:45:59;;;;;;;3.15;1.17;;;13.40;66.60;;;;;;2548548;53;21020;-83
2023/03/27 14:48:29;;;;;;;2.10;0.95;;;13.40;65.70;;;;;;2549607;53;21552;-82
2023/03/27 14:51:00;;;;;;;3.75;1.08;;;13.50;66.30;;;;;;2549536;53;20925;-84
2023/03/27 14:53:36;;;;;;;1.77;0.80;;;13.50;66.50;;;;;;2549559;53;20984;-82
2023/03/27 14:56:35;;;;;;;1.67;0.77;;;13.50;66.40;;;;;;2332707;53;20919;-83
2023/03/27 14:59:37;;;;;;;2.12;1.02;;;13.50;65.70;;;;;;2550585;52;20941;-84
2023/03/27 15:02:05;;;;;;;2.67;1.10;;;13.50;66.40;;;;;;2308968;53;20936;-82
2023/03/27 15:04:31;;;;;;;3.33;1.00;;;13.50;66.00;;;;;;2539040;53;20900;-84
2023/03/27 15:08:01;;;;;;;3.10;1.08;;;13.50;65.30;;;;;;2314502;53;21568;-83
2023/03/27 15:10:29;;;;;;;2.40;0.85;;;13.40;63.40;;;;;;2504078;52;4777707;-83
2023/03/27 15:12:55;;;;;;;2.67;0.70;;;13.30;64.50;;;;;;2578669;53;21003;-83
2023/03/27 15:15:29;;;;;;;4.00;0.80;;;13.30;64.50;;;;;;2578688;52;20964;-84
2023/03/27 15:17:58;;;;;;;2.08;0.82;;;13.10;64.00;;;;;;2578275;52;22107;-84
2023/03/27 15:20:26;;;;;;;2.05;0.85;;;13.00;63.60;;;;;;2580231;52;21044;-85